createdAt,value
2023-05-05T00:00:40.068Z,99.90
2023-05-05T00:03:07.244Z,99.90
2023-05-05T00:05:34.120Z,99.90
2023-05-05T00:08:00.906Z,99.90
2023-05-05T00:10:27.988Z,99.90
2023-05-05T00:12:54.842Z,99.90
2023-05-05T00:15:21.815Z,99.90
2023-05-05T00:17:48.612Z,99.90
2023-05-05T00:20:15.401Z,99.90
2023-05-05T00:22:42.147Z,99.90
2023-05-05T00:25:09.209Z,99.90
2023-05-05T00:27:36.033Z,99.90
2023-05-05T00:30:03.470Z,99.90
2023-05-05T00:32:30.317Z,99.90
2023-05-05T00:34:57.103Z,99.90
2023-05-05T00:37:23.887Z,99.90
2023-05-05T00:39:50.847Z,99.90
2023-05-05T00:42:17.631Z,99.90
2023-05-05T00:44:44.970Z,99.90
2023-05-05T00:47:12.012Z,99.90
2023-05-05T00:49:38.935Z,99.90
2023-05-05T00:52:07.417Z,99.90
2023-05-05T00:54:37.343Z,99.90
2023-05-05T00:57:04.283Z,99.90
2023-05-05T00:59:31.274Z,99.90
2023-05-05T01:01:58.237Z,99.90
2023-05-05T01:04:26.732Z,99.90
2023-05-05T01:07:11.759Z,99.90
2023-05-05T01:09:47.539Z,99.90
2023-05-05T01:12:23.418Z,99.90
2023-05-05T01:14:57.930Z,99.90
2023-05-05T01:17:27.564Z,99.90
2023-05-05T01:19:59.635Z,99.90
2023-05-05T01:22:28.974Z,99.90
2023-05-05T01:25:27.140Z,99.90
2023-05-05T01:28:39.521Z,99.90
2023-05-05T01:31:09.682Z,99.90
2023-05-05T01:34:00.144Z,99.90
2023-05-05T01:36:31.526Z,99.90
2023-05-05T01:39:00.627Z,99.90
2023-05-05T01:41:33.648Z,99.90
2023-05-05T01:44:01.328Z,99.90
2023-05-05T01:46:28.061Z,99.90
2023-05-05T01:48:54.857Z,99.90
2023-05-05T01:51:22.065Z,99.90
2023-05-05T01:53:50.954Z,99.90
2023-05-05T01:56:17.744Z,99.90
2023-05-05T01:58:45.184Z,99.90
2023-05-05T02:01:12.497Z,99.90
2023-05-05T02:03:39.632Z,99.90
2023-05-05T02:06:06.567Z,99.90
2023-05-05T02:08:33.390Z,99.90
2023-05-05T02:11:00.783Z,99.90
2023-05-05T02:13:27.604Z,99.90
2023-05-05T02:15:54.452Z,99.90
2023-05-05T02:18:22.198Z,99.90
2023-05-05T02:20:49.230Z,99.90
2023-05-05T02:23:15.963Z,99.90
2023-05-05T02:25:44.130Z,99.90
2023-05-05T02:28:28.168Z,99.90
2023-05-05T02:30:59.583Z,99.90
2023-05-05T02:33:26.918Z,99.90
2023-05-05T02:35:54.257Z,99.90
2023-05-05T02:38:21.483Z,99.90
2023-05-05T02:40:48.317Z,99.90
2023-05-05T02:43:16.833Z,99.90
2023-05-05T02:45:43.926Z,99.90
2023-05-05T02:48:12.956Z,99.90
2023-05-05T02:50:39.930Z,99.90
2023-05-05T02:53:06.895Z,99.90
2023-05-05T02:55:51.010Z,99.90
2023-05-05T02:58:23.641Z,99.90
2023-05-05T03:01:00.866Z,99.90
2023-05-05T03:03:54.956Z,99.90
2023-05-05T03:06:22.198Z,99.90
2023-05-05T03:09:08.652Z,99.90
2023-05-05T03:12:00.051Z,99.90
2023-05-05T03:14:27.560Z,99.90
2023-05-05T03:16:54.704Z,99.90
2023-05-05T03:19:21.567Z,99.90
2023-05-05T03:21:48.341Z,99.90
2023-05-05T03:24:17.917Z,99.90
2023-05-05T03:26:45.465Z,99.90
2023-05-05T03:29:12.980Z,99.90
2023-05-05T03:31:39.974Z,99.90
2023-05-05T03:34:07.387Z,99.90
2023-05-05T03:36:35.163Z,99.90
2023-05-05T03:39:01.982Z,99.90
2023-05-05T03:41:28.847Z,99.90
2023-05-05T03:43:55.671Z,99.90
2023-05-05T03:46:22.491Z,99.90
2023-05-05T03:48:49.286Z,99.90
2023-05-05T03:51:16.396Z,99.90
2023-05-05T03:53:43.176Z,99.90
2023-05-05T03:56:10.031Z,99.90
2023-05-05T03:58:36.775Z,99.90
2023-05-05T04:01:03.968Z,99.90
2023-05-05T04:03:31.203Z,99.90
2023-05-05T04:05:58.191Z,99.90
2023-05-05T04:08:25.118Z,99.90
2023-05-05T04:10:51.928Z,99.90
2023-05-05T04:13:18.757Z,99.90
2023-05-05T04:15:46.508Z,99.90
2023-05-05T04:18:13.314Z,99.90
2023-05-05T04:20:40.146Z,99.90
2023-05-05T04:23:07.171Z,99.90
2023-05-05T04:25:34.356Z,99.90
2023-05-05T04:28:01.165Z,98.30
2023-05-05T04:30:27.982Z,96.70
2023-05-05T04:32:54.875Z,95.40
2023-05-05T04:35:22.228Z,93.80
2023-05-05T04:37:49.059Z,93.70
2023-05-05T04:40:16.197Z,84.50
2023-05-05T04:42:43.004Z,80.40
2023-05-05T04:45:10.274Z,75.90
2023-05-05T04:47:38.839Z,73.00
2023-05-05T04:50:06.482Z,70.50
2023-05-05T04:52:33.597Z,69.70
2023-05-05T04:55:01.240Z,66.70
2023-05-05T04:57:28.061Z,65.40
2023-05-05T04:59:54.791Z,63.30
2023-05-05T05:02:21.664Z,61.60
2023-05-05T05:04:48.552Z,62.10
2023-05-05T05:07:15.311Z,61.60
2023-05-05T05:09:42.210Z,60.20
2023-05-05T05:12:09.801Z,61.60
2023-05-05T05:14:38.038Z,60.40
2023-05-05T05:17:05.533Z,59.80
2023-05-05T05:19:32.382Z,59.00
2023-05-05T05:21:59.194Z,58.40
2023-05-05T05:24:26.324Z,58.20
2023-05-05T05:26:53.100Z,58.70
2023-05-05T05:29:20.520Z,57.90
2023-05-05T05:31:47.426Z,56.80
2023-05-05T05:34:14.169Z,56.60
2023-05-05T05:36:41.015Z,56.20
2023-05-05T05:39:08.149Z,56.30
2023-05-05T05:41:34.933Z,55.60
2023-05-05T05:44:01.768Z,54.70
2023-05-05T05:46:28.584Z,54.00
2023-05-05T05:48:55.493Z,53.90
2023-05-05T05:51:22.368Z,53.60
2023-05-05T05:53:49.326Z,53.30
2023-05-05T05:56:16.074Z,52.20
2023-05-05T05:58:42.935Z,52.20
2023-05-05T06:01:09.818Z,51.30
2023-05-05T06:03:36.679Z,51.10
2023-05-05T06:06:03.677Z,50.80
2023-05-05T06:08:30.629Z,51.30
2023-05-05T06:10:57.401Z,51.30
2023-05-05T06:13:24.155Z,50.40
2023-05-05T06:15:50.991Z,50.10
2023-05-05T06:18:17.974Z,48.60
2023-05-05T06:20:44.898Z,48.20
2023-05-05T06:23:11.726Z,47.00
2023-05-05T06:25:38.454Z,46.90
2023-05-05T06:28:05.612Z,46.00
2023-05-05T06:30:32.876Z,45.60
2023-05-05T06:32:59.948Z,44.80
2023-05-05T06:35:26.869Z,45.60
2023-05-05T06:37:54.082Z,44.60
2023-05-05T06:40:21.108Z,44.90
2023-05-05T06:42:47.931Z,45.10
2023-05-05T06:45:15.392Z,45.50
2023-05-05T06:47:42.614Z,44.30
2023-05-05T06:50:10.268Z,43.70
2023-05-05T06:52:37.315Z,43.50
2023-05-05T06:55:04.619Z,43.80
2023-05-05T06:57:31.376Z,43.50
2023-05-05T06:59:58.141Z,44.80
2023-05-05T07:02:26.639Z,43.60
2023-05-05T07:04:55.606Z,44.90
2023-05-05T07:07:22.705Z,46.10
2023-05-05T07:09:49.537Z,45.50
2023-05-05T07:12:16.391Z,45.60
2023-05-05T07:14:43.354Z,45.30
2023-05-05T07:17:11.415Z,44.40
2023-05-05T07:19:38.345Z,44.10
2023-05-05T07:22:05.289Z,43.30
2023-05-05T07:24:32.065Z,42.90
2023-05-05T07:26:59.278Z,42.30
2023-05-05T07:29:26.105Z,42.60
2023-05-05T07:31:52.989Z,42.30
2023-05-05T07:34:19.836Z,40.90
2023-05-05T07:36:46.686Z,40.60
2023-05-05T07:39:19.859Z,40.70
2023-05-05T07:41:46.590Z,40.50
2023-05-05T07:44:13.472Z,40.20
2023-05-05T07:46:40.417Z,39.90
2023-05-05T07:49:07.681Z,39.00
2023-05-05T07:51:35.060Z,38.40
2023-05-05T07:54:01.934Z,39.70
2023-05-05T07:56:28.816Z,38.90
2023-05-05T07:58:55.729Z,37.80
2023-05-05T08:01:22.763Z,36.80
2023-05-05T08:03:49.630Z,37.40
2023-05-05T08:06:17.948Z,38.20
2023-05-05T08:08:44.754Z,38.30
2023-05-05T08:11:11.548Z,38.50
2023-05-05T08:13:39.142Z,37.60
2023-05-05T08:16:06.352Z,38.80
2023-05-05T08:18:34.505Z,38.10
2023-05-05T08:21:01.268Z,38.60
2023-05-05T08:23:27.973Z,38.50
2023-05-05T08:25:54.754Z,38.50
2023-05-05T08:28:21.532Z,40.20
2023-05-05T08:30:49.499Z,39.20
2023-05-05T08:33:16.371Z,38.60
2023-05-05T08:35:43.364Z,38.90
2023-05-05T08:38:11.286Z,39.80
2023-05-05T08:40:39.432Z,38.80
2023-05-05T08:43:06.333Z,38.00
2023-05-05T08:45:33.259Z,37.30
2023-05-05T08:48:04.390Z,36.60
2023-05-05T08:50:31.429Z,37.20
2023-05-05T08:53:16.923Z,36.80
2023-05-05T08:55:54.315Z,35.00
2023-05-05T08:58:24.616Z,35.60
2023-05-05T09:00:52.454Z,36.00
2023-05-05T09:03:19.288Z,36.60
2023-05-05T09:05:46.226Z,37.20
2023-05-05T09:08:13.054Z,37.30
2023-05-05T09:10:42.760Z,38.20
2023-05-05T09:13:09.660Z,38.70
2023-05-05T09:15:38.848Z,37.90
2023-05-05T09:18:08.914Z,38.40
2023-05-05T09:20:36.662Z,40.10
2023-05-05T09:23:12.978Z,40.70
2023-05-05T09:25:40.749Z,38.90
2023-05-05T09:28:14.860Z,39.50
2023-05-05T09:30:42.796Z,37.70
2023-05-05T09:33:09.720Z,37.40
2023-05-05T09:35:53.284Z,36.60
2023-05-05T09:38:20.633Z,37.80
2023-05-05T09:40:48.268Z,38.40
2023-05-05T09:43:15.935Z,37.60
2023-05-05T09:45:43.226Z,37.60
2023-05-05T09:48:29.617Z,36.40
2023-05-05T09:50:56.830Z,37.20
2023-05-05T09:53:24.097Z,39.10
2023-05-05T09:55:58.082Z,38.40
2023-05-05T09:58:28.815Z,40.30
2023-05-05T10:00:56.687Z,40.50
2023-05-05T10:03:23.762Z,41.70
2023-05-05T10:05:54.193Z,44.80
2023-05-05T10:08:22.549Z,46.10
2023-05-05T10:11:07.358Z,45.20
2023-05-05T10:13:40.244Z,46.40
2023-05-05T10:16:08.254Z,47.50
2023-05-05T10:18:35.066Z,48.40
2023-05-05T10:21:03.285Z,48.10
2023-05-05T10:23:50.377Z,49.70
2023-05-05T10:26:17.526Z,49.70
2023-05-05T10:28:51.030Z,49.60
2023-05-05T10:31:25.854Z,48.90
2023-05-05T10:34:22.005Z,47.80
2023-05-05T10:36:49.400Z,49.90
2023-05-05T10:39:16.343Z,49.30
2023-05-05T10:41:43.188Z,50.10
2023-05-05T10:44:10.782Z,51.70
2023-05-05T10:46:38.082Z,51.60
2023-05-05T10:49:07.552Z,47.10
2023-05-05T10:51:55.841Z,48.30
2023-05-05T10:54:34.622Z,49.80
2023-05-05T10:57:04.607Z,51.80
2023-05-05T10:59:37.910Z,51.70
2023-05-05T11:02:24.376Z,48.90
2023-05-05T11:05:08.272Z,49.80
2023-05-05T11:07:35.548Z,50.50
2023-05-05T11:10:03.907Z,50.50
2023-05-05T11:12:31.699Z,50.60
2023-05-05T11:15:27.666Z,51.60
2023-05-05T11:18:07.403Z,49.50
2023-05-05T11:20:40.649Z,50.20
2023-05-05T11:23:07.561Z,50.70
2023-05-05T11:25:37.533Z,49.80
2023-05-05T11:28:09.074Z,52.10
2023-05-05T11:30:57.548Z,52.20
2023-05-05T11:33:37.729Z,51.10
2023-05-05T11:36:11.870Z,50.80
2023-05-05T11:38:47.593Z,51.80
2023-05-05T11:41:34.733Z,48.20
2023-05-05T11:44:10.985Z,49.20
2023-05-05T11:46:41.727Z,50.40
2023-05-05T11:49:09.408Z,49.10
2023-05-05T11:51:36.318Z,48.10
2023-05-05T11:54:03.183Z,48.80
2023-05-05T11:56:30.038Z,51.00
2023-05-05T11:59:08.646Z,48.80
2023-05-05T12:01:39.290Z,50.50
2023-05-05T12:04:06.609Z,48.80
2023-05-05T12:06:34.088Z,49.50
2023-05-05T12:09:01.177Z,49.00
2023-05-05T12:11:28.024Z,48.10
2023-05-05T12:14:12.914Z,50.10
2023-05-05T12:16:39.856Z,48.80
2023-05-05T12:19:07.964Z,48.80
2023-05-05T12:21:35.193Z,49.10
2023-05-05T12:24:02.082Z,49.80
2023-05-05T12:26:29.763Z,49.20
2023-05-05T12:28:59.713Z,49.50
2023-05-05T12:31:36.150Z,50.30
2023-05-05T12:34:03.806Z,48.50
2023-05-05T12:36:30.861Z,48.30
2023-05-05T12:38:57.653Z,47.80
2023-05-05T12:41:24.514Z,48.30
2023-05-05T12:43:58.375Z,50.50
2023-05-05T12:46:25.669Z,48.50
2023-05-05T12:49:04.789Z,50.50
2023-05-05T12:51:54.904Z,48.60
2023-05-05T12:54:23.824Z,48.50
2023-05-05T12:56:50.627Z,49.00
2023-05-05T12:59:23.415Z,49.30
2023-05-05T13:01:54.910Z,48.50
2023-05-05T13:04:25.936Z,50.50
2023-05-05T13:07:12.517Z,51.10
2023-05-05T13:09:39.570Z,50.60
2023-05-05T13:12:08.513Z,51.30
2023-05-05T13:14:36.408Z,50.30
2023-05-05T13:17:03.236Z,50.30
2023-05-05T13:19:30.147Z,49.50
2023-05-05T13:21:57.602Z,49.40
2023-05-05T13:24:38.021Z,51.10
2023-05-05T13:27:09.576Z,50.60
2023-05-05T13:29:36.421Z,51.10
2023-05-05T13:32:03.265Z,50.50
2023-05-05T13:34:30.156Z,49.10
2023-05-05T13:36:56.997Z,48.50
2023-05-05T13:39:23.809Z,49.00
2023-05-05T13:41:50.662Z,49.60
2023-05-05T13:44:17.551Z,49.60
2023-05-05T13:46:44.451Z,50.70
2023-05-05T13:49:11.337Z,51.20
2023-05-05T13:51:38.951Z,51.20
2023-05-05T13:54:06.733Z,50.20
2023-05-05T13:56:34.301Z,49.70
2023-05-05T13:59:01.306Z,50.70
2023-05-05T14:01:28.253Z,49.90
2023-05-05T14:03:56.985Z,50.70
2023-05-05T14:06:24.407Z,49.90
2023-05-05T14:08:51.715Z,50.30
2023-05-05T14:11:20.658Z,50.40
2023-05-05T14:13:48.240Z,49.00
2023-05-05T14:16:15.330Z,49.40
2023-05-05T14:18:42.534Z,49.70
2023-05-05T14:21:09.459Z,51.00
2023-05-05T14:23:36.344Z,50.80
2023-05-05T14:26:03.208Z,50.80
2023-05-05T14:28:30.075Z,50.60
2023-05-05T14:30:57.026Z,50.80
2023-05-05T14:33:23.891Z,50.70
2023-05-05T14:35:50.701Z,48.70
2023-05-05T14:38:17.719Z,49.50
2023-05-05T14:40:44.557Z,49.10
2023-05-05T14:43:11.366Z,49.40
2023-05-05T14:45:38.213Z,48.50
2023-05-05T14:48:05.192Z,48.90
2023-05-05T14:50:31.987Z,48.80
2023-05-05T14:52:58.811Z,49.80
2023-05-05T14:55:26.140Z,50.70
2023-05-05T14:57:52.971Z,50.60
2023-05-05T15:00:19.909Z,49.10
2023-05-05T15:02:48.327Z,49.10
2023-05-05T15:05:15.585Z,48.20
2023-05-05T15:07:42.380Z,49.10
2023-05-05T15:10:09.692Z,48.60
2023-05-05T15:12:36.630Z,49.20
2023-05-05T15:15:03.571Z,49.50
2023-05-05T15:17:31.823Z,49.50
2023-05-05T15:19:58.879Z,48.50
2023-05-05T15:22:26.006Z,48.60
2023-05-05T15:24:53.195Z,49.10
2023-05-05T15:27:20.169Z,49.50
2023-05-05T15:29:47.065Z,49.60
2023-05-05T15:32:14.035Z,48.80
2023-05-05T15:34:40.976Z,49.50
2023-05-05T15:37:07.827Z,49.80
2023-05-05T15:39:34.703Z,49.40
2023-05-05T15:42:04.927Z,49.40
2023-05-05T15:44:31.947Z,50.20
2023-05-05T15:46:58.806Z,50.60
2023-05-05T15:49:25.748Z,51.20
2023-05-05T15:51:52.664Z,50.90
2023-05-05T15:54:19.588Z,50.90
2023-05-05T15:56:46.404Z,51.70
2023-05-05T15:59:13.464Z,51.40
2023-05-05T16:01:40.468Z,50.40
2023-05-05T16:04:07.466Z,51.20
2023-05-05T16:06:34.277Z,50.90
2023-05-05T16:09:01.122Z,50.80
2023-05-05T16:11:28.187Z,51.50
2023-05-05T16:13:55.231Z,51.40
2023-05-05T16:16:22.158Z,51.30
2023-05-05T16:18:49.127Z,51.30
2023-05-05T16:21:16.138Z,52.10
2023-05-05T16:23:43.412Z,51.70
2023-05-05T16:26:10.715Z,52.40
2023-05-05T16:28:37.756Z,52.30
2023-05-05T16:31:04.715Z,52.30
2023-05-05T16:33:31.669Z,53.30
2023-05-05T16:35:58.587Z,52.90
2023-05-05T16:38:25.482Z,53.20
2023-05-05T16:40:52.404Z,53.00
2023-05-05T16:43:19.622Z,53.20
2023-05-05T16:45:46.774Z,53.20
2023-05-05T16:48:14.748Z,53.50
2023-05-05T16:50:41.706Z,53.90
2023-05-05T16:53:09.201Z,53.50
2023-05-05T16:55:36.085Z,53.90
2023-05-05T16:58:03.229Z,54.60
2023-05-05T17:00:30.287Z,54.30
2023-05-05T17:02:57.161Z,55.20
2023-05-05T17:05:24.020Z,54.70
2023-05-05T17:07:51.033Z,55.00
2023-05-05T17:10:17.874Z,55.50
2023-05-05T17:12:44.704Z,55.50
2023-05-05T17:15:11.685Z,56.20
2023-05-05T17:17:39.310Z,56.50
2023-05-05T17:20:08.384Z,56.20
2023-05-05T17:22:35.202Z,56.30
2023-05-05T17:25:02.070Z,56.70
2023-05-05T17:27:28.821Z,57.00
2023-05-05T17:29:56.321Z,57.20
2023-05-05T17:32:23.402Z,57.40
2023-05-05T17:34:50.210Z,57.70
2023-05-05T17:37:16.996Z,58.00
2023-05-05T17:39:43.831Z,58.10
2023-05-05T17:42:10.861Z,58.60
2023-05-05T17:44:37.658Z,58.80
2023-05-05T17:47:07.688Z,59.00
2023-05-05T17:49:34.864Z,59.30
2023-05-05T17:52:01.676Z,59.40
2023-05-05T17:54:28.520Z,60.00
2023-05-05T17:56:55.368Z,60.10
2023-05-05T17:59:22.226Z,60.60
2023-05-05T18:01:49.204Z,61.10
2023-05-05T18:04:16.223Z,61.30
2023-05-05T18:06:43.102Z,61.50
2023-05-05T18:09:11.262Z,61.90
2023-05-05T18:11:38.268Z,63.00
2023-05-05T18:14:05.140Z,63.60
2023-05-05T18:16:32.013Z,64.40
2023-05-05T18:18:58.801Z,65.10
2023-05-05T18:21:25.881Z,65.60
2023-05-05T18:23:57.323Z,66.20
2023-05-05T18:26:28.695Z,66.70
2023-05-05T18:28:55.470Z,67.30
2023-05-05T18:31:22.356Z,68.60
2023-05-05T18:33:49.182Z,68.60
2023-05-05T18:36:16.211Z,69.20
2023-05-05T18:38:43.152Z,69.70
2023-05-05T18:41:09.949Z,70.20
2023-05-05T18:43:36.776Z,70.90
2023-05-05T18:46:03.643Z,71.30
2023-05-05T18:48:30.716Z,71.60
2023-05-05T18:51:04.012Z,72.80
2023-05-05T18:53:31.831Z,73.20
2023-05-05T18:55:59.248Z,74.10
2023-05-05T18:58:26.670Z,74.70
2023-05-05T19:00:53.737Z,76.10
2023-05-05T19:03:20.608Z,77.10
2023-05-05T19:05:47.406Z,78.60
2023-05-05T19:08:14.214Z,80.20
2023-05-05T19:10:41.565Z,82.40
2023-05-05T19:13:09.542Z,84.30
2023-05-05T19:15:36.420Z,87.20
2023-05-05T19:18:03.392Z,88.60
2023-05-05T19:20:31.748Z,90.50
2023-05-05T19:23:03.573Z,91.20
2023-05-05T19:25:30.992Z,91.80
2023-05-05T19:27:58.016Z,92.20
2023-05-05T19:30:24.875Z,92.60
2023-05-05T19:32:54.315Z,92.90
2023-05-05T19:35:21.271Z,93.40
2023-05-05T19:37:48.176Z,93.80
2023-05-05T19:40:14.975Z,94.40
2023-05-05T19:42:41.957Z,95.40
2023-05-05T19:45:08.990Z,96.20
2023-05-05T19:47:36.336Z,96.90
2023-05-05T19:50:03.266Z,97.80
2023-05-05T19:52:30.297Z,98.60
2023-05-05T19:54:58.406Z,98.90
2023-05-05T19:57:25.244Z,99.40
2023-05-05T19:59:52.040Z,99.90
2023-05-05T20:02:20.309Z,99.90
2023-05-05T20:04:47.271Z,99.90
2023-05-05T20:07:15.606Z,99.90
2023-05-05T20:09:42.925Z,99.90
2023-05-05T20:12:09.770Z,99.90
2023-05-05T20:14:36.673Z,99.90
2023-05-05T20:17:03.564Z,99.90
2023-05-05T20:19:30.471Z,99.90
2023-05-05T20:21:57.265Z,99.90
2023-05-05T20:24:24.066Z,99.90
2023-05-05T20:26:50.913Z,99.90
2023-05-05T20:29:19.613Z,99.90
2023-05-05T20:31:47.833Z,99.90
2023-05-05T20:34:14.950Z,99.90
2023-05-05T20:36:41.797Z,99.90
2023-05-05T20:39:08.613Z,99.90
2023-05-05T20:41:36.668Z,99.90
2023-05-05T20:44:03.453Z,99.90
2023-05-05T20:46:30.314Z,99.90
2023-05-05T20:48:57.233Z,99.90
2023-05-05T20:51:24.032Z,99.90
2023-05-05T20:53:50.874Z,99.90
2023-05-05T20:56:17.874Z,99.90
2023-05-05T20:58:44.706Z,99.90
2023-05-05T21:01:12.074Z,99.90
2023-05-05T21:03:39.048Z,99.90
2023-05-05T21:06:06.118Z,99.90
2023-05-05T21:08:32.982Z,99.90
2023-05-05T21:10:59.778Z,99.90
2023-05-05T21:13:26.618Z,99.90
2023-05-05T21:15:53.461Z,99.90
2023-05-05T21:18:20.309Z,99.90
2023-05-05T21:20:47.166Z,99.90
2023-05-05T21:23:13.989Z,99.90
2023-05-05T21:25:40.818Z,99.90
2023-05-05T21:28:07.685Z,99.90
2023-05-05T21:30:34.479Z,99.90
2023-05-05T21:33:01.351Z,99.90
2023-05-05T21:35:28.224Z,99.90
2023-05-05T21:37:54.978Z,99.90
2023-05-05T21:40:21.832Z,99.90
2023-05-05T21:42:48.599Z,99.90
2023-05-05T21:45:15.371Z,99.90
2023-05-05T21:47:42.351Z,99.90
2023-05-05T21:50:10.235Z,99.90
2023-05-05T21:52:37.251Z,99.90
2023-05-05T21:55:04.515Z,99.90
2023-05-05T21:57:31.305Z,99.90
2023-05-05T21:59:58.123Z,99.90
2023-05-05T22:02:25.061Z,99.90
2023-05-05T22:04:52.091Z,99.90
2023-05-05T22:07:19.086Z,99.90
2023-05-05T22:09:46.241Z,99.90
2023-05-05T22:12:13.171Z,99.90
2023-05-05T22:14:40.108Z,99.90
2023-05-05T22:17:07.050Z,99.90
2023-05-05T22:19:33.870Z,99.90
2023-05-05T22:22:00.744Z,99.90
2023-05-05T22:24:27.553Z,99.90
2023-05-05T22:26:54.588Z,99.90
2023-05-05T22:29:21.369Z,99.90
2023-05-05T22:31:48.321Z,99.90
2023-05-05T22:34:15.196Z,99.90
2023-05-05T22:36:42.278Z,99.90
2023-05-05T22:39:09.172Z,99.90
2023-05-05T22:41:36.092Z,99.90
2023-05-05T22:44:02.920Z,99.90
2023-05-05T22:46:29.826Z,99.90
2023-05-05T22:48:56.656Z,99.90
2023-05-05T22:51:23.480Z,99.90
2023-05-05T22:53:50.400Z,99.90
2023-05-05T22:56:17.207Z,99.90
2023-05-05T22:58:44.025Z,99.90
2023-05-05T23:01:10.977Z,99.90
2023-05-05T23:03:37.761Z,99.90
2023-05-05T23:06:04.544Z,99.90
2023-05-05T23:08:31.358Z,99.90
2023-05-05T23:10:58.319Z,99.90
2023-05-05T23:13:25.175Z,99.90
2023-05-05T23:15:52.609Z,99.90
2023-05-05T23:18:19.410Z,99.90
2023-05-05T23:20:46.297Z,99.90
2023-05-05T23:23:13.097Z,99.90
2023-05-05T23:25:39.874Z,99.90
2023-05-05T23:28:06.664Z,99.90
2023-05-05T23:30:33.690Z,99.90
2023-05-05T23:33:01.260Z,99.90
2023-05-05T23:35:28.178Z,99.90
2023-05-05T23:37:55.163Z,99.90
2023-05-05T23:40:22.343Z,99.90
2023-05-05T23:42:49.210Z,99.90
2023-05-05T23:45:18.086Z,99.90
2023-05-05T23:47:46.098Z,99.90
2023-05-05T23:50:12.934Z,99.90
2023-05-05T23:52:39.729Z,99.90
2023-05-05T23:55:07.331Z,99.90
2023-05-05T23:57:35.335Z,99.90
